Time;durP1;ratioP1;P1;durP2;ratioP2;P2;SDS_P1;SDS_P2;PMS_P1;PMS_P2;Temp;Humidity;BMP_temperature;BMP_pressure;BME280_temperature;BME280_humidity;BME280_pressure;Samples;Min_cycle;Max_cycle;Signal;HPM_P1;HPM_P2
2022/04/06 00:00:44;;;;;;;22.52;4.68;;;9.80;99.90;;;;;;5048877;28;20039;-59
2022/04/06 00:03:09;;;;;;;16.85;3.33;;;9.70;99.90;;;;;;5049146;28;20044;-61
2022/04/06 00:05:35;;;;;;;14.93;3.35;;;9.80;99.90;;;;;;5031766;28;20043;-59
2022/04/06 00:08:01;;;;;;;19.80;4.47;;;9.80;99.90;;;;;;5044736;28;20036;-60
2022/04/06 00:10:28;;;;;;;24.15;4.85;;;9.70;99.90;;;;;;5037254;28;20438;-59
2022/04/06 00:12:54;;;;;;;18.33;4.88;;;9.70;99.90;;;;;;5037448;28;20397;-60
2022/04/06 00:15:20;;;;;;;19.95;4.30;;;9.70;99.90;;;;;;5038154;28;20120;-60
2022/04/06 00:17:46;;;;;;;20.63;4.25;;;9.70;99.90;;;;;;5022754;28;20124;-61
2022/04/06 00:20:13;;;;;;;22.00;4.03;;;9.70;99.90;;;;;;5036399;28;20041;-60
2022/04/06 00:22:40;;;;;;;19.00;4.25;;;9.70;99.90;;;;;;5045255;28;20061;-60
2022/04/06 00:25:05;;;;;;;17.45;4.70;;;9.70;99.90;;;;;;5020659;28;20034;-60
2022/04/06 00:27:31;;;;;;;14.48;4.43;;;9.80;99.90;;;;;;5036835;28;20040;-61
2022/04/06 00:29:57;;;;;;;16.27;4.28;;;9.80;99.90;;;;;;5022737;28;20029;-60
2022/04/06 00:32:23;;;;;;;13.65;3.42;;;9.80;99.90;;;;;;5023736;28;20094;-59
2022/04/06 00:37:33;;;;;;;25.48;4.32;;;9.80;99.90;;;;;;5039531;28;20040;-60
2022/04/06 00:39:58;;;;;;;17.10;4.13;;;9.80;99.90;;;;;;5039663;28;20045;-62
2022/04/06 00:42:24;;;;;;;13.10;3.72;;;9.90;99.90;;;;;;5022683;28;20029;-60
2022/04/06 00:44:49;;;;;;;22.27;3.92;;;9.90;99.90;;;;;;5038913;28;20044;-60
2022/04/06 00:47:15;;;;;;;19.42;4.97;;;9.90;99.90;;;;;;5033920;28;20128;-59
2022/04/06 00:49:41;;;;;;;13.45;3.50;;;9.90;99.90;;;;;;5040455;28;20032;-60
2022/04/06 00:52:07;;;;;;;16.67;3.55;;;9.90;99.90;;;;;;5043854;28;20486;-60
2022/04/06 00:54:34;;;;;;;20.10;4.40;;;9.90;99.90;;;;;;5042287;28;20052;-60
2022/04/06 00:56:59;;;;;;;17.92;4.38;;;9.90;99.90;;;;;;5022818;28;20053;-62
2022/04/06 00:59:28;;;;;;;17.20;4.75;;;9.90;99.90;;;;;;5039682;28;20422;-63
2022/04/06 01:01:54;;;;;;;19.73;4.28;;;9.90;99.90;;;;;;5037410;28;20497;-61
2022/04/06 01:04:20;;;;;;;16.55;3.50;;;9.80;99.90;;;;;;5039955;28;20036;-60
2022/04/06 01:06:48;;;;;;;14.18;3.65;;;9.90;99.90;;;;;;5038062;28;20059;-60
2022/04/06 01:09:15;;;;;;;15.55;3.13;;;9.90;99.90;;;;;;5020526;28;20112;-59
2022/04/06 01:11:44;;;;;;;19.23;4.20;;;9.90;99.90;;;;;;5040204;28;20059;-61
2022/04/06 01:14:10;;;;;;;20.42;4.30;;;9.90;99.90;;;;;;5036210;28;20508;-60
2022/04/06 01:16:35;;;;;;;16.10;3.50;;;9.90;99.90;;;;;;5039814;28;20116;-62
2022/04/06 01:19:01;;;;;;;17.30;3.38;;;9.90;99.90;;;;;;5037305;28;20538;-59
2022/04/06 01:21:27;;;;;;;12.80;3.42;;;9.90;99.90;;;;;;5035605;28;20994;-60
2022/04/06 01:23:52;;;;;;;21.40;3.53;;;9.90;99.90;;;;;;5038553;28;20082;-60
2022/04/06 01:26:19;;;;;;;17.40;3.33;;;9.90;99.90;;;;;;5036887;28;20100;-60
2022/04/06 01:28:45;;;;;;;11.60;3.28;;;9.90;99.90;;;;;;5037475;28;20042;-60
2022/04/06 01:31:10;;;;;;;14.05;3.22;;;9.90;99.90;;;;;;5037477;28;20540;-59
2022/04/06 01:33:36;;;;;;;13.38;3.42;;;9.90;99.90;;;;;;5036215;28;20029;-61
2022/04/06 01:36:02;;;;;;;15.90;3.28;;;9.90;99.90;;;;;;5035815;28;20034;-60
2022/04/06 01:38:28;;;;;;;10.45;2.53;;;9.90;99.90;;;;;;5039051;28;20048;-61
2022/04/06 01:40:54;;;;;;;21.55;3.25;;;9.90;99.90;;;;;;5034639;28;20037;-62
2022/04/06 01:43:21;;;;;;;15.95;2.88;;;9.90;99.90;;;;;;5036449;28;20036;-63
2022/04/06 01:45:47;;;;;;;8.32;2.13;;;9.90;99.90;;;;;;5019663;28;20037;-60
2022/04/06 01:48:16;;;;;;;17.65;3.67;;;9.80;99.90;;;;;;5037718;28;20055;-61
2022/04/06 01:53:28;;;;;;;17.98;2.05;;;9.80;99.90;;;;;;5038917;28;20087;-61
2022/04/06 01:55:55;;;;;;;10.00;3.15;;;9.80;99.90;;;;;;5035896;28;20052;-60
2022/04/06 01:58:22;;;;;;;14.57;2.67;;;9.80;99.90;;;;;;5037457;28;20064;-62
2022/04/06 02:00:48;;;;;;;10.20;2.65;;;9.80;99.90;;;;;;5033545;28;20033;-59
2022/04/06 02:03:14;;;;;;;16.83;3.42;;;9.80;99.90;;;;;;5016747;28;20041;-60
2022/04/06 02:05:39;;;;;;;17.98;3.10;;;9.90;99.90;;;;;;5039172;28;20047;-61
2022/04/06 02:08:06;;;;;;;11.57;2.28;;;9.80;99.90;;;;;;5038020;28;20078;-63
2022/04/06 02:10:33;;;;;;;14.65;2.65;;;9.80;99.90;;;;;;5034984;28;20041;-61
2022/04/06 02:12:59;;;;;;;9.93;2.70;;;9.80;99.90;;;;;;5043290;28;20119;-61
2022/04/06 02:15:30;;;;;;;13.68;1.83;;;9.70;99.90;;;;;;5041843;28;20493;-59
2022/04/06 02:17:55;;;;;;;8.38;1.73;;;9.70;99.90;;;;;;5034729;28;20044;-60
2022/04/06 02:20:21;;;;;;;7.38;2.22;;;9.70;99.90;;;;;;5017373;28;20037;-60
2022/04/06 02:22:46;;;;;;;10.70;2.63;;;9.70;99.90;;;;;;5037375;28;20398;-61
2022/04/06 02:25:12;;;;;;;7.82;1.92;;;9.70;99.90;;;;;;5036799;28;20072;-60
2022/04/06 02:27:52;;;;;;;5.32;1.58;;;9.70;99.90;;;;;;5036281;28;20033;-59
2022/04/06 02:30:18;;;;;;;14.85;2.13;;;9.70;99.90;;;;;;5044311;28;20044;-60
2022/04/06 02:32:45;;;;;;;13.68;1.63;;;9.70;99.90;;;;;;5047088;28;20033;-60
2022/04/06 02:35:11;;;;;;;15.57;2.65;;;9.70;99.90;;;;;;5051156;28;20047;-61
2022/04/06 02:37:39;;;;;;;10.05;1.65;;;9.70;99.90;;;;;;5050901;28;20040;-61
2022/04/06 02:40:05;;;;;;;8.40;2.10;;;9.70;99.90;;;;;;5049745;28;20116;-62
2022/04/06 02:42:31;;;;;;;6.25;2.33;;;9.60;99.90;;;;;;5054240;28;20059;-61
2022/04/06 02:44:56;;;;;;;10.23;1.88;;;9.70;99.90;;;;;;5033472;28;20485;-63
2022/04/06 02:47:22;;;;;;;5.72;1.10;;;9.60;99.90;;;;;;5050161;28;20037;-61
2022/04/06 02:49:47;;;;;;;7.70;1.20;;;9.60;99.90;;;;;;5048040;28;20094;-61
2022/04/06 02:52:13;;;;;;;18.38;2.67;;;9.60;99.90;;;;;;5039545;28;20048;-62
2022/04/06 02:54:38;;;;;;;8.43;1.58;;;9.60;99.90;;;;;;5040182;28;20084;-62
2022/04/06 02:57:06;;;;;;;8.95;2.65;;;9.60;99.90;;;;;;5040859;28;20039;-63
2022/04/06 02:59:31;;;;;;;10.55;2.22;;;9.60;99.90;;;;;;5039006;28;20473;-61
2022/04/06 03:01:57;;;;;;;10.30;1.80;;;9.50;99.90;;;;;;5042028;28;20112;-62
2022/04/06 03:04:22;;;;;;;12.77;1.33;;;9.50;99.90;;;;;;5038735;28;20091;-61
2022/04/06 03:06:48;;;;;;;4.63;1.17;;;9.50;99.90;;;;;;5049666;28;20140;-63
2022/04/06 03:09:13;;;;;;;17.70;2.60;;;9.50;99.90;;;;;;5049762;28;20079;-61
2022/04/06 03:11:39;;;;;;;9.77;1.63;;;9.50;99.90;;;;;;5050175;28;20029;-61
2022/04/06 03:14:05;;;;;;;14.50;1.45;;;9.40;99.90;;;;;;5039809;28;20031;-63
2022/04/06 03:16:31;;;;;;;10.55;1.98;;;9.40;99.90;;;;;;5049724;28;20112;-61
2022/04/06 03:18:57;;;;;;;10.88;1.38;;;9.30;99.90;;;;;;5050411;28;20846;-63
2022/04/06 03:21:22;;;;;;;7.55;1.40;;;9.30;99.90;;;;;;5048603;28;20111;-62
2022/04/06 03:23:48;;;;;;;6.25;1.92;;;9.30;99.90;;;;;;5050070;28;20079;-63
2022/04/06 03:26:14;;;;;;;8.50;1.00;;;9.20;99.90;;;;;;5031912;28;20102;-62
2022/04/06 03:28:39;;;;;;;6.65;1.02;;;9.20;99.90;;;;;;5049812;28;20136;-61
2022/04/06 03:31:06;;;;;;;6.65;1.20;;;9.20;99.90;;;;;;5048820;28;20120;-61
2022/04/06 03:33:32;;;;;;;6.05;1.38;;;9.10;99.90;;;;;;5050239;28;20044;-63
2022/04/06 03:35:58;;;;;;;12.23;1.88;;;9.10;99.90;;;;;;5041788;28;20033;-61
2022/04/06 03:38:23;;;;;;;16.10;1.52;;;9.00;99.90;;;;;;5045319;28;20102;-62
2022/04/06 03:40:49;;;;;;;8.18;1.05;;;9.00;99.90;;;;;;5048927;28;20172;-62
2022/04/06 03:43:14;;;;;;;9.32;1.40;;;9.00;99.90;;;;;;5047963;28;20033;-62
2022/04/06 03:45:40;;;;;;;4.38;1.05;;;9.10;99.90;;;;;;5048759;28;20037;-62
2022/04/06 03:48:06;;;;;;;11.77;1.25;;;9.00;99.90;;;;;;5049223;28;20021;-63
2022/04/06 03:50:31;;;;;;;10.13;1.70;;;9.10;99.90;;;;;;5049122;28;20033;-63
2022/04/06 03:52:57;;;;;;;4.00;1.08;;;9.10;99.90;;;;;;5050176;28;20151;-64
2022/04/06 03:55:23;;;;;;;7.15;1.00;;;9.00;99.90;;;;;;5048930;28;20064;-62
2022/04/06 03:57:48;;;;;;;6.38;1.00;;;9.00;99.90;;;;;;5048492;28;20033;-61
2022/04/06 04:00:14;;;;;;;9.43;1.13;;;9.10;99.90;;;;;;5048134;28;20033;-62
2022/04/06 04:02:40;;;;;;;6.90;1.58;;;9.00;99.90;;;;;;5049603;28;20128;-62
2022/04/06 04:05:06;;;;;;;6.97;0.90;;;9.10;99.90;;;;;;5048926;28;20116;-61
2022/04/06 04:07:37;;;;;;;5.05;0.70;;;9.10;99.90;;;;;;5031598;28;20082;-61
2022/04/06 04:10:04;;;;;;;9.88;2.20;;;9.10;99.90;;;;;;5030098;28;20396;-62
2022/04/06 04:12:30;;;;;;;7.78;1.45;;;9.10;99.90;;;;;;5049285;28;20091;-62
2022/04/06 04:14:55;;;;;;;7.68;1.27;;;9.10;99.90;;;;;;5049854;28;20029;-61
2022/04/06 04:17:21;;;;;;;5.95;0.85;;;9.20;99.90;;;;;;5045337;28;20029;-63
2022/04/06 04:19:46;;;;;;;5.75;0.63;;;9.20;99.90;;;;;;5030872;28;20025;-60
2022/04/06 04:22:12;;;;;;;15.73;2.17;;;9.20;99.90;;;;;;5048145;28;20116;-63
2022/04/06 04:24:38;;;;;;;14.77;1.73;;;9.20;99.90;;;;;;5049328;28;20381;-62
2022/04/06 04:27:03;;;;;;;8.15;1.48;;;9.20;99.90;;;;;;5048349;28;20029;-62
2022/04/06 04:29:29;;;;;;;13.20;2.45;;;9.20;99.90;;;;;;5048773;28;20025;-61
2022/04/06 04:31:55;;;;;;;11.13;1.20;;;9.20;99.90;;;;;;5044480;28;20021;-61
2022/04/06 04:34:20;;;;;;;8.55;2.33;;;9.30;99.90;;;;;;5020665;28;20288;-61
2022/04/06 04:36:46;;;;;;;14.07;1.20;;;9.30;99.90;;;;;;5040261;28;20056;-62
2022/04/06 04:39:11;;;;;;;9.23;1.73;;;9.30;99.90;;;;;;5037983;28;20045;-61
2022/04/06 04:41:37;;;;;;;13.98;1.88;;;9.30;99.90;;;;;;5038796;28;20036;-62
2022/04/06 04:44:03;;;;;;;13.35;1.20;;;9.20;99.90;;;;;;5039522;28;20191;-61
2022/04/06 04:46:29;;;;;;;5.25;1.17;;;9.10;99.90;;;;;;5044104;28;20076;-61
2022/04/06 04:48:54;;;;;;;7.50;1.08;;;9.10;99.90;;;;;;5041368;28;20483;-61
2022/04/06 04:51:20;;;;;;;8.52;1.05;;;9.10;99.90;;;;;;5028240;28;20041;-61
2022/04/06 04:53:45;;;;;;;8.73;1.50;;;9.00;99.90;;;;;;5021800;28;20037;-62
2022/04/06 04:56:11;;;;;;;10.55;1.20;;;9.00;99.90;;;;;;5047461;28;20068;-62
2022/04/06 04:58:36;;;;;;;8.20;1.13;;;9.00;99.90;;;;;;5048455;28;20041;-61
2022/04/06 05:01:03;;;;;;;8.05;1.10;;;9.00;99.90;;;;;;5025195;28;20041;-60
2022/04/06 05:03:28;;;;;;;7.38;1.10;;;9.00;99.90;;;;;;5042532;28;20375;-62
2022/04/06 05:05:56;;;;;;;15.13;1.50;;;9.00;99.90;;;;;;5038032;28;20032;-61
2022/04/06 05:08:22;;;;;;;7.65;1.05;;;9.00;99.90;;;;;;5033948;28;20042;-61
2022/04/06 05:10:47;;;;;;;4.90;0.80;;;9.10;99.90;;;;;;5037003;28;20029;-62
2022/04/06 05:13:14;;;;;;;6.50;1.67;;;9.10;99.90;;;;;;5037132;28;20111;-62
2022/04/06 05:15:41;;;;;;;7.85;0.90;;;9.10;99.90;;;;;;5019993;28;20068;-61
2022/04/06 05:18:06;;;;;;;14.10;1.85;;;9.10;99.90;;;;;;5047083;28;20037;-61
2022/04/06 05:20:32;;;;;;;7.40;1.10;;;9.20;99.90;;;;;;5040651;28;20032;-59
2022/04/06 05:22:58;;;;;;;4.80;0.90;;;9.20;99.90;;;;;;5038503;28;20497;-61
2022/04/06 05:25:24;;;;;;;7.63;1.75;;;9.20;99.90;;;;;;5037706;28;20057;-62
2022/04/06 05:27:51;;;;;;;4.50;1.33;;;9.20;99.90;;;;;;5025895;28;20150;-60
2022/04/06 05:30:19;;;;;;;17.17;2.22;;;9.20;99.90;;;;;;5039033;28;20809;-61
2022/04/06 05:32:48;;;;;;;10.95;2.28;;;9.30;99.90;;;;;;5039360;28;20043;-60
2022/04/06 05:35:13;;;;;;;14.63;2.47;;;9.30;99.90;;;;;;5038612;28;20658;-62
2022/04/06 05:37:40;;;;;;;8.52;1.92;;;9.40;99.90;;;;;;5039311;28;20041;-61
2022/04/06 05:40:08;;;;;;;10.15;1.83;;;9.40;99.90;;;;;;5041796;28;20052;-61
2022/04/06 05:42:33;;;;;;;10.43;1.13;;;9.40;99.90;;;;;;5045126;28;20750;-61
2022/04/06 05:44:59;;;;;;;11.15;1.58;;;9.50;99.90;;;;;;5043221;28;20029;-62
2022/04/06 05:47:24;;;;;;;13.43;1.48;;;9.50;99.90;;;;;;5041201;28;20036;-66
2022/04/06 05:49:50;;;;;;;6.13;0.93;;;9.50;99.90;;;;;;5044309;28;20108;-62
2022/04/06 05:52:16;;;;;;;16.02;2.42;;;9.50;99.90;;;;;;5040161;28;20056;-61
2022/04/06 05:54:42;;;;;;;11.43;2.35;;;9.60;99.90;;;;;;5022740;28;20033;-61
2022/04/06 05:57:07;;;;;;;9.98;1.52;;;9.60;99.90;;;;;;5044886;28;20032;-61
2022/04/06 05:59:33;;;;;;;11.85;2.08;;;9.60;99.90;;;;;;5023449;28;20061;-61
2022/04/06 06:01:59;;;;;;;12.52;1.95;;;9.60;99.90;;;;;;5037693;28;20033;-62
2022/04/06 06:04:24;;;;;;;8.70;2.78;;;9.70;99.90;;;;;;5045765;28;20030;-61
2022/04/06 06:06:51;;;;;;;9.30;1.77;;;9.70;99.90;;;;;;5042708;28;20380;-60
2022/04/06 06:09:17;;;;;;;24.02;2.05;;;9.70;99.90;;;;;;5041758;28;20032;-62
2022/04/06 06:11:42;;;;;;;6.40;1.45;;;9.70;99.90;;;;;;5043601;28;20043;-60
2022/04/06 06:14:08;;;;;;;10.38;2.13;;;9.70;99.90;;;;;;5037791;28;20025;-60
2022/04/06 06:16:34;;;;;;;7.75;2.40;;;9.70;99.90;;;;;;5022684;28;20028;-61
2022/04/06 06:19:00;;;;;;;15.18;1.52;;;9.70;99.90;;;;;;5043260;28;20047;-61
2022/04/06 06:21:27;;;;;;;10.13;2.10;;;9.80;99.90;;;;;;5038727;28;20033;-63
2022/04/06 06:23:53;;;;;;;7.60;1.75;;;9.80;99.90;;;;;;5038425;28;20044;-61
2022/04/06 06:26:20;;;;;;;5.35;1.92;;;9.80;99.90;;;;;;5041752;28;20044;-61
2022/04/06 06:28:45;;;;;;;7.32;1.77;;;9.90;99.90;;;;;;5042347;28;20556;-61
2022/04/06 06:31:11;;;;;;;9.02;1.20;;;9.80;99.90;;;;;;5039912;28;20130;-61
2022/04/06 06:33:37;;;;;;;5.18;0.95;;;9.80;99.90;;;;;;5041395;28;20485;-62
2022/04/06 06:36:03;;;;;;;10.65;1.35;;;9.80;99.90;;;;;;5020089;28;20029;-61
2022/04/06 06:38:28;;;;;;;5.88;1.48;;;9.90;99.90;;;;;;5039788;28;20041;-61
2022/04/06 06:40:54;;;;;;;5.78;0.98;;;9.90;99.90;;;;;;5041346;28;20040;-61
2022/04/06 06:43:20;;;;;;;9.60;1.23;;;9.90;99.90;;;;;;5043158;28;24195;-61
2022/04/06 06:45:45;;;;;;;9.13;1.02;;;9.90;99.90;;;;;;5039953;28;20548;-61
2022/04/06 06:48:11;;;;;;;11.80;0.93;;;9.90;99.90;;;;;;5041045;28;20030;-61
2022/04/06 06:50:36;;;;;;;6.40;1.48;;;10.10;99.90;;;;;;5040010;28;20496;-61
2022/04/06 06:53:02;;;;;;;7.68;1.30;;;10.10;99.90;;;;;;5037500;28;20543;-61
2022/04/06 06:55:28;;;;;;;8.68;0.90;;;10.20;99.90;;;;;;5040535;28;20078;-61
2022/04/06 06:57:53;;;;;;;5.95;1.13;;;10.30;99.90;;;;;;5039190;28;20091;-62
2022/04/06 07:00:19;;;;;;;8.98;1.35;;;10.40;99.90;;;;;;5038798;28;20128;-61
2022/04/06 07:02:45;;;;;;;3.30;0.60;;;10.40;99.90;;;;;;5040550;28;20030;-61
2022/04/06 07:05:11;;;;;;;4.43;0.65;;;10.40;99.90;;;;;;5040591;28;20038;-62
2022/04/06 07:08:01;;;;;;;6.88;1.23;;;10.40;99.90;;;;;;5037522;28;20045;-60
2022/04/06 07:10:27;;;;;;;9.65;1.13;;;10.50;99.90;;;;;;5037476;28;20048;-62
2022/04/06 07:12:53;;;;;;;3.40;0.50;;;10.50;99.90;;;;;;5039628;28;20029;-62
2022/04/06 07:15:19;;;;;;;9.82;1.20;;;10.50;99.90;;;;;;5035767;28;20060;-61
2022/04/06 07:17:49;;;;;;;5.40;0.65;;;10.60;99.90;;;;;;5043000;28;20043;-61
2022/04/06 07:20:15;;;;;;;3.92;0.80;;;10.60;99.90;;;;;;5039051;28;20044;-62
2022/04/06 07:22:40;;;;;;;8.00;1.25;;;10.60;99.90;;;;;;5026994;28;20025;-61
2022/04/06 07:25:08;;;;;;;6.13;0.80;;;10.60;99.90;;;;;;5045621;28;20840;-61
2022/04/06 07:27:38;;;;;;;9.90;1.02;;;10.50;99.90;;;;;;5047223;28;20033;-62
2022/04/06 07:30:05;;;;;;;10.90;1.38;;;10.50;99.90;;;;;;5039511;28;20494;-61
2022/04/06 07:32:31;;;;;;;8.13;1.80;;;10.50;99.90;;;;;;5044730;28;20040;-61
2022/04/06 07:34:57;;;;;;;14.10;2.03;;;10.50;99.90;;;;;;5044086;28;20060;-62
2022/04/06 07:37:23;;;;;;;6.00;0.73;;;10.50;99.90;;;;;;5042511;28;20507;-64
2022/04/06 07:39:48;;;;;;;9.00;1.70;;;10.40;99.90;;;;;;5045103;28;20029;-62
2022/04/06 07:42:14;;;;;;;7.00;0.90;;;10.30;99.90;;;;;;5020497;28;20041;-62
2022/04/06 07:44:40;;;;;;;6.30;0.98;;;10.20;99.90;;;;;;5044120;28;20040;-62
2022/04/06 07:47:05;;;;;;;11.52;1.42;;;10.10;99.90;;;;;;5039390;28;20033;-62
2022/04/06 07:49:31;;;;;;;6.18;0.82;;;10.00;99.90;;;;;;5045619;28;20037;-61
2022/04/06 07:51:57;;;;;;;7.00;1.35;;;9.90;99.90;;;;;;5039287;28;20036;-61
2022/04/06 07:54:23;;;;;;;11.60;0.90;;;9.70;99.90;;;;;;5041339;28;20175;-61
2022/04/06 07:56:48;;;;;;;12.75;1.65;;;9.70;99.90;;;;;;5040975;28;20029;-61
2022/04/06 07:59:14;;;;;;;7.80;1.00;;;9.60;99.90;;;;;;5044581;28;20044;-61
2022/04/06 08:01:40;;;;;;;4.53;1.15;;;9.60;99.90;;;;;;5039625;28;20051;-61
2022/04/06 08:04:05;;;;;;;10.82;1.10;;;9.50;99.90;;;;;;5022408;28;20079;-63
2022/04/06 08:06:31;;;;;;;9.80;1.20;;;9.40;99.90;;;;;;5042572;28;20156;-61
2022/04/06 08:08:57;;;;;;;6.30;1.08;;;9.40;99.90;;;;;;5045338;28;20030;-61
2022/04/06 08:11:23;;;;;;;9.52;1.15;;;9.40;99.90;;;;;;5041643;28;20681;-60
2022/04/06 08:13:49;;;;;;;10.95;1.58;;;9.30;99.90;;;;;;5039412;28;20091;-61
2022/04/06 08:16:14;;;;;;;6.55;1.40;;;9.30;99.90;;;;;;5041449;28;20041;-62
2022/04/06 08:18:40;;;;;;;7.72;1.88;;;9.20;99.90;;;;;;5045233;28;20045;-62
2022/04/06 08:21:05;;;;;;;9.60;1.40;;;9.30;99.90;;;;;;5038195;28;20094;-61
2022/04/06 08:23:31;;;;;;;3.42;1.20;;;9.20;99.90;;;;;;5044991;28;20103;-61
2022/04/06 08:25:57;;;;;;;9.70;1.70;;;9.20;99.90;;;;;;5038677;28;20481;-64
2022/04/06 08:28:22;;;;;;;5.95;1.20;;;9.30;99.90;;;;;;5039270;28;20048;-61
2022/04/06 08:30:48;;;;;;;6.30;1.52;;;9.30;99.90;;;;;;5039571;28;20033;-61
2022/04/06 08:33:15;;;;;;;12.85;2.13;;;9.30;99.90;;;;;;5045269;28;20090;-62
2022/04/06 08:35:42;;;;;;;12.00;2.15;;;9.30;99.90;;;;;;5042662;28;20099;-62
2022/04/06 08:38:12;;;;;;;3.97;1.23;;;9.30;99.90;;;;;;5041538;28;20069;-60
2022/04/06 08:40:39;;;;;;;7.25;1.58;;;9.30;99.90;;;;;;5040481;28;20063;-62
2022/04/06 08:43:06;;;;;;;6.30;1.30;;;9.30;99.90;;;;;;5035320;28;20535;-61
2022/04/06 08:45:39;;;;;;;10.27;1.95;;;9.30;99.90;;;;;;5022770;28;20032;-62
2022/04/06 08:48:09;;;;;;;7.25;1.50;;;9.40;99.90;;;;;;5044406;28;20025;-60
2022/04/06 08:50:36;;;;;;;6.07;0.90;;;9.40;99.90;;;;;;5037323;28;20037;-61
2022/04/06 08:53:03;;;;;;;12.52;2.13;;;9.40;99.90;;;;;;5041707;28;20025;-61
2022/04/06 08:55:30;;;;;;;9.10;2.20;;;9.40;99.90;;;;;;5025445;28;20041;-62
2022/04/06 08:57:56;;;;;;;6.32;1.48;;;9.40;99.90;;;;;;5037632;28;20820;-61
2022/04/06 09:00:22;;;;;;;8.40;1.63;;;9.40;99.90;;;;;;5023135;28;20831;-63
2022/04/06 09:02:48;;;;;;;9.75;2.42;;;9.40;99.90;;;;;;5044548;28;20035;-63
2022/04/06 09:05:14;;;;;;;9.43;2.65;;;9.40;99.90;;;;;;5020319;28;20025;-62
2022/04/06 09:07:41;;;;;;;9.98;1.65;;;9.40;99.90;;;;;;5043162;28;20127;-61
2022/04/06 09:10:07;;;;;;;12.57;2.95;;;9.40;99.90;;;;;;5036392;28;20030;-62
2022/04/06 09:12:33;;;;;;;8.43;2.10;;;9.40;99.90;;;;;;5043938;28;20753;-61
2022/04/06 09:15:12;;;;;;;4.70;1.98;;;9.40;99.90;;;;;;5022118;28;20055;-63
2022/04/06 09:17:46;;;;;;;13.50;2.30;;;9.40;99.90;;;;;;5041467;28;20044;-61
2022/04/06 09:20:16;;;;;;;6.97;1.77;;;9.50;99.90;;;;;;5041852;28;20108;-61
2022/04/06 09:22:41;;;;;;;11.27;2.85;;;9.40;99.90;;;;;;5039191;28;20037;-61
2022/04/06 09:25:09;;;;;;;7.75;2.58;;;9.40;99.90;;;;;;5040788;28;20025;-62
2022/04/06 09:27:35;;;;;;;7.85;2.55;;;9.40;99.90;;;;;;5041362;28;20064;-62
2022/04/06 09:30:04;;;;;;;6.88;1.92;;;9.30;99.90;;;;;;5043245;28;20069;-62
2022/04/06 09:32:30;;;;;;;8.65;2.53;;;9.40;99.90;;;;;;5023600;28;20115;-61
2022/04/06 09:34:55;;;;;;;9.38;3.67;;;9.40;99.90;;;;;;5022472;28;20140;-62
2022/04/06 09:37:29;;;;;;;8.50;2.72;;;9.40;99.90;;;;;;5025717;28;20179;-62
2022/04/06 09:39:56;;;;;;;7.45;2.72;;;9.30;99.90;;;;;;5040214;28;20063;-61
2022/04/06 09:42:26;;;;;;;6.43;2.13;;;9.40;99.90;;;;;;5025268;28;20067;-61
2022/04/06 09:47:38;;;;;;;14.85;3.17;;;9.40;99.90;;;;;;5042233;28;20127;-63
2022/04/06 09:50:14;;;;;;;8.88;3.75;;;9.40;99.90;;;;;;5041585;28;20640;-61
2022/04/06 09:52:44;;;;;;;20.77;4.03;;;9.50;99.90;;;;;;5035791;28;20041;-61
2022/04/06 09:55:12;;;;;;;10.45;3.33;;;9.50;99.90;;;;;;5021935;28;20068;-61
2022/04/06 09:57:43;;;;;;;6.65;2.95;;;9.60;99.90;;;;;;5040376;28;20061;-61
2022/04/06 10:00:16;;;;;;;8.80;3.38;;;9.70;99.90;;;;;;5040137;28;20048;-62
2022/04/06 10:02:42;;;;;;;13.82;3.13;;;9.70;99.90;;;;;;5039840;28;20079;-64
2022/04/06 10:05:12;;;;;;;11.48;3.15;;;9.70;99.90;;;;;;5044502;28;20037;-60
2022/04/06 10:07:42;;;;;;;11.32;3.15;;;9.70;99.90;;;;;;5042389;28;20036;-62
2022/04/06 10:10:07;;;;;;;19.38;4.05;;;9.80;99.90;;;;;;5039252;28;20061;-62
2022/04/06 10:12:33;;;;;;;10.98;2.78;;;9.90;99.90;;;;;;5041360;28;20103;-60
2022/04/06 10:15:00;;;;;;;10.20;3.47;;;10.00;99.90;;;;;;5038848;28;20747;-61
2022/04/06 10:17:29;;;;;;;8.20;3.08;;;10.00;99.90;;;;;;5044792;28;20378;-62
2022/04/06 10:20:23;;;;;;;10.35;3.00;;;10.10;99.90;;;;;;5042519;28;20624;-62
2022/04/06 10:22:54;;;;;;;15.68;3.15;;;10.20;99.90;;;;;;4998454;28;20033;-61
2022/04/06 10:25:25;;;;;;;;;;;10.40;99.90;;;;;;5039675;28;20033;-61
2022/04/06 10:27:53;;;;;;;14.45;2.60;;;10.60;99.90;;;;;;5034918;28;20000;-62
2022/04/06 10:30:26;;;;;;;8.75;2.47;;;10.80;99.90;;;;;;5020490;28;20060;-60
2022/04/06 10:32:53;;;;;;;11.20;2.75;;;10.90;99.90;;;;;;5039124;28;20496;-61
2022/04/06 10:35:25;;;;;;;9.32;2.35;;;11.00;99.90;;;;;;5043314;28;20116;-62
2022/04/06 10:37:58;;;;;;;11.40;2.95;;;11.10;99.90;;;;;;5039910;28;20051;-62
2022/04/06 10:40:42;;;;;;;7.10;2.22;;;11.20;99.90;;;;;;5037677;28;21698;-61
2022/04/06 10:43:38;;;;;;;10.93;2.50;;;11.20;99.90;;;;;;5041051;28;20492;-62
2022/04/06 10:46:14;;;;;;;8.05;2.58;;;11.20;99.90;;;;;;5019613;28;20029;-62
2022/04/06 10:49:15;;;;;;;11.40;2.28;;;11.20;99.90;;;;;;5036192;28;20037;-61
2022/04/06 10:51:45;;;;;;;8.00;2.20;;;11.20;99.90;;;;;;4953143;28;20039;-60
2022/04/06 10:54:14;;;;;;;7.97;2.00;;;11.20;99.90;;;;;;5026623;28;20056;-60
2022/04/06 10:56:48;;;;;;;7.75;2.00;;;11.20;99.90;;;;;;5040077;28;20610;-62
2022/04/06 10:59:18;;;;;;;10.63;2.30;;;11.10;99.90;;;;;;5041995;28;20072;-65
2022/04/06 11:01:46;;;;;;;9.38;2.50;;;11.20;99.90;;;;;;5042277;28;20052;-61
2022/04/06 11:04:24;;;;;;;13.02;3.58;;;11.10;99.90;;;;;;5023469;28;20040;-60
2022/04/06 11:07:00;;;;;;;10.63;2.58;;;11.00;99.90;;;;;;5042611;28;20444;-60
2022/04/06 11:12:20;;;;;;;5.13;1.95;;;10.90;99.90;;;;;;5042155;28;20170;-61
2022/04/06 11:14:47;;;;;;;;;;;10.90;99.90;;;;;;5043421;28;20445;-60
2022/04/06 11:17:44;;;;;;;7.30;2.45;;;10.90;99.90;;;;;;5042345;28;19921;-61
2022/04/06 11:20:21;;;;;;;10.60;2.60;;;10.90;99.90;;;;;;5037563;28;20071;-60
2022/04/06 11:22:46;;;;;;;8.73;2.10;;;11.00;99.90;;;;;;5039691;28;20029;-61
2022/04/06 11:25:17;;;;;;;6.03;1.92;;;11.00;99.90;;;;;;5045067;28;20040;-60
2022/04/06 11:27:44;;;;;;;20.25;3.00;;;10.90;99.90;;;;;;5040122;28;20035;-60
2022/04/06 11:30:22;;;;;;;12.85;2.40;;;11.00;99.90;;;;;;5042690;28;20776;-61
2022/04/06 11:32:58;;;;;;;7.15;1.77;;;11.10;99.90;;;;;;5043283;28;20041;-63
2022/04/06 11:35:28;;;;;;;3.95;1.98;;;11.20;99.90;;;;;;5045065;28;20029;-60
2022/04/06 11:37:54;;;;;;;6.25;1.92;;;11.30;99.90;;;;;;5025322;28;20041;-60
2022/04/06 11:40:25;;;;;;;6.00;2.05;;;11.30;99.90;;;;;;5039209;28;20041;-60
2022/04/06 11:42:52;;;;;;;;;;;11.30;99.90;;;;;;5048931;28;20032;-61
2022/04/06 11:45:30;;;;;;;6.97;1.75;;;11.30;99.90;;;;;;5049166;28;19912;-61
2022/04/06 11:48:02;;;;;;;5.85;1.63;;;11.30;99.90;;;;;;5046142;28;20123;-61
2022/04/06 11:50:29;;;;;;;15.38;3.55;;;11.30;99.90;;;;;;5041371;28;20055;-63
2022/04/06 11:52:59;;;;;;;6.60;1.92;;;11.20;99.90;;;;;;5045412;28;20111;-61
2022/04/06 11:55:50;;;;;;;9.95;2.13;;;11.00;99.90;;;;;;5045083;28;20047;-62
2022/04/06 11:58:31;;;;;;;9.32;2.22;;;11.00;99.90;;;;;;5042702;28;20124;-61
2022/04/06 12:01:01;;;;;;;4.40;2.08;;;10.80;99.90;;;;;;5038987;28;20123;-60
2022/04/06 12:03:28;;;;;;;7.50;2.30;;;10.80;99.90;;;;;;5046156;28;20036;-61
2022/04/06 12:05:54;;;;;;;11.70;4.38;;;10.80;99.90;;;;;;5044529;28;20036;-60
2022/04/06 12:08:19;;;;;;;6.72;2.33;;;10.80;99.90;;;;;;5048277;28;20025;-62
2022/04/06 12:10:58;;;;;;;7.07;2.65;;;10.80;99.90;;;;;;5049083;28;20531;-60
2022/04/06 12:13:25;;;;;;;6.65;2.00;;;10.80;99.90;;;;;;5044979;28;20040;-61
2022/04/06 12:15:54;;;;;;;7.43;2.33;;;10.80;99.90;;;;;;5049263;28;20041;-60
2022/04/06 12:18:21;;;;;;;8.65;3.13;;;10.80;99.90;;;;;;5049067;28;20025;-60
2022/04/06 12:20:47;;;;;;;5.80;2.30;;;10.90;99.90;;;;;;5048589;28;20044;-60
2022/04/06 12:23:14;;;;;;;6.50;1.77;;;10.80;99.90;;;;;;5031182;28;20024;-59
2022/04/06 12:25:40;;;;;;;3.05;1.85;;;10.90;99.90;;;;;;5049264;28;20101;-60
2022/04/06 12:28:18;;;;;;;4.63;2.05;;;10.80;99.90;;;;;;5048837;28;20029;-60
2022/04/06 12:31:03;;;;;;;4.82;1.42;;;10.80;99.90;;;;;;5048820;28;20040;-60
2022/04/06 12:33:41;;;;;;;9.88;2.10;;;10.70;99.90;;;;;;5024068;28;20393;-63
2022/04/06 12:36:11;;;;;;;8.57;2.10;;;10.70;99.90;;;;;;5048636;28;20397;-60
2022/04/06 12:38:38;;;;;;;4.82;2.03;;;10.70;99.90;;;;;;5048814;28;20041;-60
2022/04/06 12:41:13;;;;;;;8.35;1.70;;;10.60;99.90;;;;;;5030211;28;20029;-60
2022/04/06 12:43:48;;;;;;;4.38;1.60;;;10.60;99.90;;;;;;5051524;28;20040;-60
2022/04/06 12:46:33;;;;;;;5.13;1.55;;;10.50;99.90;;;;;;5048661;28;20040;-60
2022/04/06 12:49:31;;;;;;;8.55;1.30;;;10.50;99.90;;;;;;5045797;28;20032;-59
2022/04/06 12:52:05;;;;;;;6.10;1.63;;;10.40;99.90;;;;;;5044479;28;20519;-60
2022/04/06 12:54:31;;;;;;;6.78;1.13;;;10.40;99.90;;;;;;5048464;28;20508;-59
2022/04/06 12:57:03;;;;;;;6.40;1.38;;;10.50;99.90;;;;;;5048688;28;20105;-61
2022/04/06 12:59:37;;;;;;;3.60;1.67;;;10.40;99.90;;;;;;5048103;28;20477;-60
2022/04/06 13:02:04;;;;;;;5.97;1.35;;;10.30;99.90;;;;;;5036268;28;20120;-61
2022/04/06 13:04:31;;;;;;;3.90;1.20;;;10.30;99.90;;;;;;5039306;28;20468;-60